Time;durP1;ratioP1;P1;durP2;ratioP2;P2;SDS_P1;SDS_P2;PMS_P1;PMS_P2;Temp;Humidity;BMP_temperature;BMP_pressure;BME280_temperature;BME280_humidity;BME280_pressure;Samples;Min_cycle;Max_cycle;Signal;HPM_P1;HPM_P2
2021/12/30 00:00:13;;;;;;;4.90;4.37;;;;;;;;;;1890446;76;26249;-50
2021/12/30 00:02:40;;;;;;;4.55;4.15;;;;;;;;;;1877861;76;26810;-46
2021/12/30 00:05:08;;;;;;;5.17;4.45;;;;;;;;;;1824618;78;26298;-46
2021/12/30 00:07:36;;;;;;;4.87;4.37;;;;;;;;;;1830601;77;26261;-43
2021/12/30 00:10:04;;;;;;;4.95;4.45;;;;;;;;;;1856669;77;26728;-45
2021/12/30 00:12:32;;;;;;;4.67;4.20;;;;;;;;;;1855552;77;26295;-43
2021/12/30 00:14:59;;;;;;;4.75;4.35;;;;;;;;;;1853578;76;26307;-45
2021/12/30 00:17:27;;;;;;;5.00;4.50;;;;;;;;;;1851611;77;26264;-43
2021/12/30 00:19:54;;;;;;;4.97;4.20;;;;;;;;;;1842704;76;26693;-57
2021/12/30 00:22:22;;;;;;;5.00;4.40;;;;;;;;;;1838769;77;26252;-48
2021/12/30 00:24:50;;;;;;;5.15;4.60;;;;;;;;;;1827444;77;26775;-54
2021/12/30 00:27:17;;;;;;;4.80;4.35;;;;;;;;;;1856001;76;26475;-49
2021/12/30 00:29:45;;;;;;;4.62;4.15;;;;;;;;;;1841853;77;26347;-45
2021/12/30 00:32:12;;;;;;;5.03;4.30;;;;;;;;;;1840648;77;26217;-50
2021/12/30 00:34:39;;;;;;;4.30;3.90;;;;;;;;;;1846600;77;26683;-43
2021/12/30 00:37:07;;;;;;;4.72;4.33;;;;;;;;;;1850614;77;26846;-43
2021/12/30 00:39:34;;;;;;;4.45;4.05;;;;;;;;;;1854343;77;26240;-43
2021/12/30 00:42:01;;;;;;;4.60;4.08;;;;;;;;;;1863420;76;26267;-50
2021/12/30 00:44:28;;;;;;;4.42;4.03;;;;;;;;;;1872886;76;26266;-44
2021/12/30 00:46:58;;;;;;;4.70;4.30;;;;;;;;;;1878109;76;26182;-43
2021/12/30 00:49:26;;;;;;;4.65;4.25;;;;;;;;;;1858036;76;26816;-44
2021/12/30 00:51:53;;;;;;;4.65;4.25;;;;;;;;;;1887305;76;26262;-52
2021/12/30 00:54:21;;;;;;;4.50;4.10;;;;;;;;;;1870462;76;26720;-46
2021/12/30 00:56:48;;;;;;;4.15;3.80;;;;;;;;;;1876792;75;26203;-56
2021/12/30 00:59:16;;;;;;;4.62;4.22;;;;;;;;;;1883252;76;26297;-48
2021/12/30 01:01:43;;;;;;;4.67;4.20;;;;;;;;;;1887466;76;26694;-48
2021/12/30 01:04:11;;;;;;;4.65;4.25;;;;;;;;;;1886570;76;26273;-47
2021/12/30 01:06:38;;;;;;;5.15;4.65;;;;;;;;;;1883806;76;26262;-45
2021/12/30 01:09:06;;;;;;;4.50;4.10;;;;;;;;;;1880751;76;26868;-43
2021/12/30 01:11:33;;;;;;;4.45;4.05;;;;;;;;;;1864653;76;26342;-46
2021/12/30 01:14:09;;;;;;;4.55;4.15;;;;;;;;;;1868414;76;26819;-55
2021/12/30 01:16:35;;;;;;;4.00;3.70;;;;;;;;;;1853184;75;26843;-43
2021/12/30 01:21:44;;;;;;;4.00;3.70;;;;;;;;;;1762940;80;26329;-53
2021/12/30 01:24:11;;;;;;;4.33;3.98;;;;;;;;;;1847347;76;27438;-49
2021/12/30 01:26:38;;;;;;;4.60;4.20;;;;;;;;;;1878635;76;26251;-47
2021/12/30 01:29:06;;;;;;;4.75;4.30;;;;;;;;;;1865625;76;26715;-49
2021/12/30 01:31:33;;;;;;;4.30;3.92;;;;;;;;;;1877155;76;26268;-46
2021/12/30 01:34:00;;;;;;;4.05;3.70;;;;;;;;;;1872813;76;26234;-43
2021/12/30 01:36:28;;;;;;;4.15;3.83;;;;;;;;;;1877414;76;26207;-46
2021/12/30 01:38:55;;;;;;;4.40;4.00;;;;;;;;;;1856180;77;26343;-45
2021/12/30 01:41:23;;;;;;;4.37;3.98;;;;;;;;;;1885589;76;26286;-45
2021/12/30 01:43:51;;;;;;;4.22;3.83;;;;;;;;;;1883238;76;26189;-47
2021/12/30 01:46:18;;;;;;;4.25;3.85;;;;;;;;;;1883677;76;26768;-48
2021/12/30 01:48:46;;;;;;;4.30;3.90;;;;;;;;;;1881856;76;26328;-46
2021/12/30 01:51:13;;;;;;;4.08;3.70;;;;;;;;;;1886061;76;26242;-45
2021/12/30 01:53:40;;;;;;;4.30;3.90;;;;;;;;;;1873189;76;26751;-47
2021/12/30 01:56:08;;;;;;;4.22;3.80;;;;;;;;;;1867006;76;26367;-46
2021/12/30 01:58:36;;;;;;;3.87;3.58;;;;;;;;;;1882788;76;26569;-43
2021/12/30 02:01:05;;;;;;;3.98;3.67;;;;;;;;;;1857884;76;26271;-47
2021/12/30 02:03:32;;;;;;;3.87;3.58;;;;;;;;;;1874693;76;26268;-44
2021/12/30 02:05:59;;;;;;;3.80;3.40;;;;;;;;;;1864578;76;26254;-49
2021/12/30 02:08:26;;;;;;;3.95;3.50;;;;;;;;;;1877350;75;26349;-50
2021/12/30 02:10:54;;;;;;;3.33;3.12;;;;;;;;;;1852426;77;26367;-46
2021/12/30 02:13:21;;;;;;;3.80;3.52;;;;;;;;;;1861884;76;26784;-55
2021/12/30 02:15:49;;;;;;;5.15;3.60;;;;;;;;;;1875480;76;26326;-53
2021/12/30 02:18:17;;;;;;;3.85;3.55;;;;;;;;;;1869501;77;26262;-48
2021/12/30 02:20:49;;;;;;;3.80;3.50;;;;;;;;;;1869638;77;26320;-46
2021/12/30 02:23:18;;;;;;;3.47;3.20;;;;;;;;;;1861207;77;26904;-45
2021/12/30 02:25:46;;;;;;;3.70;3.40;;;;;;;;;;1853560;76;26724;-44
2021/12/30 02:28:14;;;;;;;3.62;3.33;;;;;;;;;;1881056;76;26642;-46
2021/12/30 02:30:43;;;;;;;3.92;3.62;;;;;;;;;;1881098;76;26269;-51
2021/12/30 02:33:10;;;;;;;3.50;3.30;;;;;;;;;;1880944;76;26253;-47
2021/12/30 02:35:38;;;;;;;3.60;3.30;;;;;;;;;;1880952;76;26744;-46
2021/12/30 02:38:06;;;;;;;3.80;3.52;;;;;;;;;;1846570;76;26253;-43
2021/12/30 02:40:36;;;;;;;3.17;2.95;;;;;;;;;;1880864;76;26237;-45
2021/12/30 02:43:05;;;;;;;3.55;3.35;;;;;;;;;;1887287;76;26356;-43
2021/12/30 02:45:33;;;;;;;3.65;3.35;;;;;;;;;;1890552;76;26601;-43
2021/12/30 02:48:00;;;;;;;3.72;3.42;;;;;;;;;;1890541;76;26254;-45
2021/12/30 02:50:29;;;;;;;3.58;3.37;;;;;;;;;;1890552;76;26274;-53
2021/12/30 02:52:56;;;;;;;3.42;3.22;;;;;;;;;;1890610;76;26222;-47
2021/12/30 02:55:24;;;;;;;3.45;3.22;;;;;;;;;;1890508;76;26316;-49
2021/12/30 02:57:51;;;;;;;3.62;3.33;;;;;;;;;;1884159;76;26264;-44
2021/12/30 03:00:18;;;;;;;3.72;3.42;;;;;;;;;;1883583;76;26269;-46
2021/12/30 03:02:45;;;;;;;3.50;3.22;;;;;;;;;;1884673;76;26253;-48
2021/12/30 03:05:14;;;;;;;3.95;3.20;;;;;;;;;;1890828;76;26291;-45
2021/12/30 03:07:41;;;;;;;3.65;3.35;;;;;;;;;;1883515;76;26348;-45
2021/12/30 03:10:10;;;;;;;3.55;3.25;;;;;;;;;;1890576;76;26265;-43
2021/12/30 03:12:37;;;;;;;3.40;3.20;;;;;;;;;;1890073;76;26352;-46
2021/12/30 03:15:05;;;;;;;3.40;3.20;;;;;;;;;;1889735;74;26252;-45
2021/12/30 03:17:32;;;;;;;3.35;3.15;;;;;;;;;;1890511;76;26278;-48
2021/12/30 03:20:00;;;;;;;3.50;3.25;;;;;;;;;;1890481;76;26215;-43
2021/12/30 03:22:27;;;;;;;3.40;3.20;;;;;;;;;;1890680;76;26206;-47
2021/12/30 03:24:54;;;;;;;3.67;3.30;;;;;;;;;;1890564;76;26701;-45
2021/12/30 03:27:21;;;;;;;3.55;3.35;;;;;;;;;;1885878;76;26634;-45
2021/12/30 03:29:49;;;;;;;3.35;3.15;;;;;;;;;;1883538;76;26340;-43
2021/12/30 03:32:16;;;;;;;3.60;3.37;;;;;;;;;;1883729;76;26249;-45
2021/12/30 03:34:43;;;;;;;3.27;3.08;;;;;;;;;;1883301;76;26253;-45
2021/12/30 03:37:11;;;;;;;3.30;3.10;;;;;;;;;;1884381;76;26261;-43
2021/12/30 03:39:38;;;;;;;3.85;3.55;;;;;;;;;;1886084;76;26793;-44
2021/12/30 03:42:05;;;;;;;3.17;2.98;;;;;;;;;;1885063;76;26284;-45
2021/12/30 03:44:33;;;;;;;3.70;3.40;;;;;;;;;;1890384;76;26261;-43
2021/12/30 03:47:00;;;;;;;3.42;3.22;;;;;;;;;;1890601;76;26301;-54
2021/12/30 03:49:29;;;;;;;3.40;3.20;;;;;;;;;;1890724;76;26331;-56
2021/12/30 03:51:56;;;;;;;3.20;3.00;;;;;;;;;;1890542;76;26250;-45
2021/12/30 03:54:23;;;;;;;3.45;3.22;;;;;;;;;;1885312;74;26252;-49
2021/12/30 03:56:51;;;;;;;3.90;3.60;;;;;;;;;;1890594;76;26350;-43
2021/12/30 03:59:18;;;;;;;3.10;2.90;;;;;;;;;;1890561;76;26780;-45
2021/12/30 04:01:45;;;;;;;3.50;3.27;;;;;;;;;;1890430;76;26249;-46
2021/12/30 04:04:12;;;;;;;3.70;3.40;;;;;;;;;;1888745;75;26186;-48
2021/12/30 04:06:40;;;;;;;3.70;3.40;;;;;;;;;;1890054;76;26339;-43
2021/12/30 04:09:07;;;;;;;3.80;3.50;;;;;;;;;;1890526;76;26350;-43
2021/12/30 04:11:36;;;;;;;3.58;3.27;;;;;;;;;;1890143;76;26268;-43
2021/12/30 04:14:04;;;;;;;3.77;3.47;;;;;;;;;;1890474;76;26856;-45
2021/12/30 04:16:32;;;;;;;3.80;3.50;;;;;;;;;;1890657;76;26197;-43
2021/12/30 04:19:00;;;;;;;3.45;3.25;;;;;;;;;;1890545;76;26284;-43
2021/12/30 04:21:27;;;;;;;3.30;3.10;;;;;;;;;;1890660;76;26632;-47
2021/12/30 04:23:54;;;;;;;3.70;3.40;;;;;;;;;;1890686;76;26241;-47
2021/12/30 04:26:22;;;;;;;3.80;3.50;;;;;;;;;;1890568;76;26217;-50
2021/12/30 04:28:49;;;;;;;3.80;3.50;;;;;;;;;;1890694;76;26281;-45
2021/12/30 04:31:16;;;;;;;3.55;3.35;;;;;;;;;;1890603;76;26741;-44
2021/12/30 04:33:44;;;;;;;3.60;3.33;;;;;;;;;;1890635;76;26246;-47
2021/12/30 04:36:13;;;;;;;3.65;3.35;;;;;;;;;;1890471;76;26268;-52
2021/12/30 04:38:40;;;;;;;3.75;3.45;;;;;;;;;;1883499;76;26285;-46
2021/12/30 04:41:08;;;;;;;3.42;3.22;;;;;;;;;;1883598;76;26319;-46
2021/12/30 04:43:35;;;;;;;3.67;3.37;;;;;;;;;;1880251;76;26359;-42
2021/12/30 04:46:03;;;;;;;3.70;3.40;;;;;;;;;;1876637;76;26645;-45
2021/12/30 04:48:30;;;;;;;3.70;3.40;;;;;;;;;;1878677;76;26290;-49
2021/12/30 04:50:57;;;;;;;3.70;3.40;;;;;;;;;;1881224;76;26194;-43
2021/12/30 04:53:25;;;;;;;3.87;3.58;;;;;;;;;;1881082;76;26277;-46
2021/12/30 04:55:52;;;;;;;3.65;3.40;;;;;;;;;;1880893;76;26332;-46
2021/12/30 04:58:20;;;;;;;3.83;3.52;;;;;;;;;;1876724;76;26278;-42
2021/12/30 05:00:47;;;;;;;3.55;3.30;;;;;;;;;;1876665;76;26274;-45
2021/12/30 05:03:16;;;;;;;3.30;3.10;;;;;;;;;;1878371;76;26265;-45
2021/12/30 05:05:47;;;;;;;4.42;3.35;;;;;;;;;;1880722;75;26270;-46
2021/12/30 05:08:15;;;;;;;3.40;3.20;;;;;;;;;;1874712;76;26246;-46
2021/12/30 05:10:43;;;;;;;4.05;3.75;;;;;;;;;;1876483;76;26246;-45
2021/12/30 05:13:11;;;;;;;3.20;3.00;;;;;;;;;;1880887;76;26364;-45
2021/12/30 05:15:39;;;;;;;3.50;3.30;;;;;;;;;;1880673;76;26757;-47
2021/12/30 05:18:09;;;;;;;3.40;3.20;;;;;;;;;;1881073;76;26868;-46
2021/12/30 05:20:37;;;;;;;3.80;3.50;;;;;;;;;;1880883;76;26324;-43
2021/12/30 05:23:04;;;;;;;3.40;3.20;;;;;;;;;;1881100;76;26259;-43
2021/12/30 05:25:32;;;;;;;3.50;3.20;;;;;;;;;;1876919;75;26743;-45
2021/12/30 05:27:59;;;;;;;3.60;3.30;;;;;;;;;;1878388;76;26249;-43
2021/12/30 05:30:27;;;;;;;3.67;3.40;;;;;;;;;;1880979;76;26256;-46
2021/12/30 05:32:55;;;;;;;3.45;3.20;;;;;;;;;;1881062;76;26257;-45
2021/12/30 05:35:23;;;;;;;3.37;3.17;;;;;;;;;;1880947;76;26265;-49
2021/12/30 05:37:51;;;;;;;3.17;2.98;;;;;;;;;;1877968;76;26320;-42
2021/12/30 05:40:20;;;;;;;3.30;3.10;;;;;;;;;;1876679;76;26332;-46
2021/12/30 05:42:47;;;;;;;3.40;3.20;;;;;;;;;;1876764;76;26718;-46
2021/12/30 05:45:15;;;;;;;3.50;3.30;;;;;;;;;;1876495;76;26281;-52
2021/12/30 05:47:46;;;;;;;3.52;3.25;;;;;;;;;;1877306;76;26562;-45
2021/12/30 05:50:14;;;;;;;3.60;3.30;;;;;;;;;;1880808;76;26256;-45
2021/12/30 05:52:42;;;;;;;3.20;3.00;;;;;;;;;;1881038;76;26293;-53
2021/12/30 05:55:09;;;;;;;3.70;3.40;;;;;;;;;;1880798;76;26863;-47
2021/12/30 05:57:36;;;;;;;3.67;3.37;;;;;;;;;;1880892;76;26257;-45
2021/12/30 06:00:05;;;;;;;2.95;2.75;;;;;;;;;;1880907;76;26316;-48
2021/12/30 06:02:32;;;;;;;3.20;3.00;;;;;;;;;;1874671;75;27333;-43
2021/12/30 06:05:00;;;;;;;3.62;3.35;;;;;;;;;;1880828;76;26258;-43
2021/12/30 06:07:27;;;;;;;3.30;3.10;;;;;;;;;;1880854;76;26226;-47
2021/12/30 06:09:54;;;;;;;3.77;3.47;;;;;;;;;;1881020;76;26246;-43
2021/12/30 06:12:21;;;;;;;3.60;3.30;;;;;;;;;;1881136;76;26251;-43
2021/12/30 06:14:49;;;;;;;3.30;3.00;;;;;;;;;;1880963;75;26473;-46
2021/12/30 06:17:16;;;;;;;3.10;2.90;;;;;;;;;;1880871;76;26250;-43
2021/12/30 06:19:44;;;;;;;3.72;3.42;;;;;;;;;;1876200;75;26780;-43
2021/12/30 06:22:12;;;;;;;3.35;3.05;;;;;;;;;;1871265;76;26317;-42
2021/12/30 06:24:40;;;;;;;3.30;3.10;;;;;;;;;;1871350;76;27385;-52
2021/12/30 06:27:08;;;;;;;3.05;2.85;;;;;;;;;;1876873;76;26256;-43
2021/12/30 06:29:35;;;;;;;3.00;2.80;;;;;;;;;;1881088;76;26702;-46
2021/12/30 06:32:03;;;;;;;3.10;2.90;;;;;;;;;;1881212;76;26252;-47
2021/12/30 06:34:31;;;;;;;3.05;2.85;;;;;;;;;;1877463;75;26307;-46
2021/12/30 06:36:58;;;;;;;3.10;2.90;;;;;;;;;;1859228;76;26264;-43
2021/12/30 06:39:25;;;;;;;3.30;3.10;;;;;;;;;;1881301;76;26269;-55
2021/12/30 06:41:53;;;;;;;3.60;3.30;;;;;;;;;;1881182;76;26253;-55
2021/12/30 06:44:20;;;;;;;3.20;3.00;;;;;;;;;;1885031;75;26304;-52
2021/12/30 06:47:09;;;;;;;2.95;2.75;;;;;;;;;;1890373;76;26434;-52
2021/12/30 06:49:16;;;;;;;2.90;2.70;;;;;;;;;;1877730;76;26348;-45
2021/12/30 06:51:44;;;;;;;2.90;2.75;;;;;;;;;;1890497;76;26383;-43
2021/12/30 06:54:11;;;;;;;2.90;2.70;;;;;;;;;;1890223;76;26246;-46
2021/12/30 06:56:39;;;;;;;2.62;2.52;;;;;;;;;;1887809;76;26630;-47
2021/12/30 06:59:07;;;;;;;2.77;2.67;;;;;;;;;;1885736;76;26375;-54
2021/12/30 07:01:34;;;;;;;2.77;2.60;;;;;;;;;;1879963;76;26241;-58
2021/12/30 07:04:01;;;;;;;2.50;2.40;;;;;;;;;;1880619;76;26188;-43
2021/12/30 07:06:29;;;;;;;2.65;2.55;;;;;;;;;;1888395;76;26248;-52
2021/12/30 07:08:56;;;;;;;2.77;2.60;;;;;;;;;;1888195;76;26235;-45
2021/12/30 07:11:23;;;;;;;2.90;2.70;;;;;;;;;;1882430;76;26255;-43
2021/12/30 07:13:50;;;;;;;2.98;2.77;;;;;;;;;;1882208;76;26348;-42
2021/12/30 07:16:18;;;;;;;2.80;2.60;;;;;;;;;;1888770;76;25659;-43
2021/12/30 07:18:45;;;;;;;2.72;2.52;;;;;;;;;;1888600;76;26348;-44
2021/12/30 07:21:13;;;;;;;2.95;2.75;;;;;;;;;;1888849;76;26252;-45
2021/12/30 07:23:41;;;;;;;2.67;2.47;;;;;;;;;;1888556;76;26309;-42
2021/12/30 07:26:08;;;;;;;2.50;2.40;;;;;;;;;;1888965;76;26315;-43
2021/12/30 07:28:35;;;;;;;2.30;2.20;;;;;;;;;;1890665;76;26722;-47
2021/12/30 07:31:03;;;;;;;2.77;2.60;;;;;;;;;;1890773;76;26852;-44
2021/12/30 07:33:30;;;;;;;2.50;2.30;;;;;;;;;;1890711;76;26388;-44
2021/12/30 07:35:57;;;;;;;2.77;2.58;;;;;;;;;;1890664;76;26245;-44
2021/12/30 07:38:24;;;;;;;2.40;2.30;;;;;;;;;;1883941;76;25746;-52
2021/12/30 07:40:52;;;;;;;2.58;2.33;;;;;;;;;;1883654;76;26835;-44
2021/12/30 07:43:19;;;;;;;2.50;2.40;;;;;;;;;;1883731;76;26753;-51
2021/12/30 07:45:46;;;;;;;2.40;2.30;;;;;;;;;;1878348;76;26593;-51
2021/12/30 07:48:14;;;;;;;2.50;2.40;;;;;;;;;;1877535;76;26313;-50
2021/12/30 07:50:41;;;;;;;2.85;2.65;;;;;;;;;;1878900;76;26235;-45
2021/12/30 07:53:08;;;;;;;2.60;2.40;;;;;;;;;;1878541;76;26258;-46
2021/12/30 07:55:35;;;;;;;2.50;2.27;;;;;;;;;;1878197;76;26304;-44
2021/12/30 07:58:03;;;;;;;2.50;2.30;;;;;;;;;;1877898;75;26270;-42
2021/12/30 08:00:30;;;;;;;2.72;2.52;;;;;;;;;;1881128;76;26199;-46
2021/12/30 08:02:58;;;;;;;2.30;2.10;;;;;;;;;;1880936;76;26342;-45
2021/12/30 08:05:27;;;;;;;2.70;2.50;;;;;;;;;;1881104;76;26428;-50
2021/12/30 08:07:54;;;;;;;2.30;2.20;;;;;;;;;;1882772;76;26285;-46
2021/12/30 08:10:22;;;;;;;2.52;2.33;;;;;;;;;;1887267;76;26283;-48
2021/12/30 08:12:52;;;;;;;2.30;2.20;;;;;;;;;;1887013;76;26273;-45
2021/12/30 08:15:20;;;;;;;2.52;2.30;;;;;;;;;;1884607;76;26239;-44
2021/12/30 08:17:47;;;;;;;2.95;2.52;;;;;;;;;;1878781;76;26294;-44
2021/12/30 08:20:16;;;;;;;2.98;2.55;;;;;;;;;;1870629;76;26302;-48
2021/12/30 08:22:44;;;;;;;2.30;2.20;;;;;;;;;;1874321;76;26780;-47
2021/12/30 08:25:13;;;;;;;2.60;2.40;;;;;;;;;;1879114;76;26326;-46
2021/12/30 08:27:41;;;;;;;2.62;2.42;;;;;;;;;;1880665;76;26253;-44
2021/12/30 08:30:10;;;;;;;2.40;2.20;;;;;;;;;;1880349;76;26768;-50
2021/12/30 08:32:37;;;;;;;3.17;2.35;;;;;;;;;;1880502;76;26257;-43
2021/12/30 08:35:06;;;;;;;2.35;2.25;;;;;;;;;;1874569;75;26378;-46
2021/12/30 08:37:34;;;;;;;2.50;2.30;;;;;;;;;;1875832;76;26665;-45
2021/12/30 08:40:02;;;;;;;2.30;2.10;;;;;;;;;;1881175;76;26356;-45
2021/12/30 08:42:30;;;;;;;2.80;2.60;;;;;;;;;;1880927;76;26371;-51
2021/12/30 08:44:58;;;;;;;2.77;2.58;;;;;;;;;;1880974;76;26369;-49
2021/12/30 08:47:27;;;;;;;2.42;2.20;;;;;;;;;;1880989;76;25625;-46
2021/12/30 08:49:55;;;;;;;2.42;2.22;;;;;;;;;;1880674;76;26229;-43
2021/12/30 08:52:23;;;;;;;2.60;2.37;;;;;;;;;;1880881;76;26217;-46
2021/12/30 08:54:52;;;;;;;2.45;2.25;;;;;;;;;;1880627;76;26726;-46
2021/12/30 08:57:20;;;;;;;3.00;2.42;;;;;;;;;;1874216;76;26310;-52
2021/12/30 08:59:47;;;;;;;2.77;2.58;;;;;;;;;;1875113;76;26267;-48
2021/12/30 09:02:14;;;;;;;2.98;2.27;;;;;;;;;;1878457;76;26255;-53
2021/12/30 09:04:45;;;;;;;2.35;2.15;;;;;;;;;;1878693;76;26321;-47
2021/12/30 09:07:12;;;;;;;2.37;2.17;;;;;;;;;;1878922;76;26287;-43
2021/12/30 09:09:40;;;;;;;2.50;2.40;;;;;;;;;;1880723;76;26234;-46
2021/12/30 09:12:08;;;;;;;3.25;2.45;;;;;;;;;;1880471;76;27376;-42
2021/12/30 09:14:35;;;;;;;4.45;2.70;;;;;;;;;;1880054;76;26360;-48
2021/12/30 09:17:03;;;;;;;4.53;2.80;;;;;;;;;;1880004;76;26259;-48
2021/12/30 09:19:31;;;;;;;2.45;2.20;;;;;;;;;;1879912;76;27481;-48
2021/12/30 09:21:58;;;;;;;2.58;2.37;;;;;;;;;;1880487;76;26239;-47
2021/12/30 09:24:25;;;;;;;2.70;2.50;;;;;;;;;;1880798;76;26695;-43
2021/12/30 09:26:53;;;;;;;2.60;2.40;;;;;;;;;;1879808;76;26775;-50
2021/12/30 09:29:20;;;;;;;2.87;2.67;;;;;;;;;;1880517;76;27406;-45
2021/12/30 09:31:49;;;;;;;2.45;2.33;;;;;;;;;;1880464;76;26253;-47
2021/12/30 09:34:17;;;;;;;2.42;2.30;;;;;;;;;;1879764;76;26254;-42
2021/12/30 09:36:44;;;;;;;2.70;2.50;;;;;;;;;;1880690;76;26246;-45
2021/12/30 09:39:12;;;;;;;2.65;2.45;;;;;;;;;;1880794;76;26781;-47
2021/12/30 09:41:41;;;;;;;3.05;2.45;;;;;;;;;;1880862;76;26770;-47
2021/12/30 09:44:09;;;;;;;2.95;2.75;;;;;;;;;;1881002;76;26733;-42
2021/12/30 09:46:36;;;;;;;2.52;2.33;;;;;;;;;;1880824;75;26271;-46
2021/12/30 09:49:04;;;;;;;2.85;2.65;;;;;;;;;;1880932;76;26691;-43
2021/12/30 09:51:32;;;;;;;3.12;2.83;;;;;;;;;;1880642;75;26198;-52
2021/12/30 09:54:04;;;;;;;2.50;2.30;;;;;;;;;;1873165;76;26315;-42
2021/12/30 09:56:30;;;;;;;2.62;2.42;;;;;;;;;;1872299;76;26213;-45
2021/12/30 09:58:57;;;;;;;2.62;2.42;;;;;;;;;;1880755;75;26535;-45
2021/12/30 10:01:24;;;;;;;2.70;2.50;;;;;;;;;;1881035;76;26254;-42
2021/12/30 10:03:56;;;;;;;2.70;2.50;;;;;;;;;;1880939;76;26628;-43
2021/12/30 10:06:25;;;;;;;2.58;2.37;;;;;;;;;;1881080;76;26645;-47
2021/12/30 10:08:54;;;;;;;2.60;2.40;;;;;;;;;;1880891;76;26851;-45
2021/12/30 10:11:21;;;;;;;2.85;2.62;;;;;;;;;;1881048;76;26257;-46
2021/12/30 10:13:50;;;;;;;2.33;2.22;;;;;;;;;;1880894;76;25857;-43
2021/12/30 10:16:18;;;;;;;2.90;2.60;;;;;;;;;;1881189;76;26260;-42
2021/12/30 10:18:55;;;;;;;3.05;2.85;;;;;;;;;;1880836;76;26276;-55
2021/12/30 10:21:23;;;;;;;2.37;2.27;;;;;;;;;;1879351;76;26276;-47
2021/12/30 10:23:52;;;;;;;2.77;2.58;;;;;;;;;;1880967;76;25644;-50
2021/12/30 10:26:19;;;;;;;3.00;2.80;;;;;;;;;;1878884;76;26211;-42
2021/12/30 10:28:48;;;;;;;2.60;2.40;;;;;;;;;;1872337;76;26670;-47
2021/12/30 10:31:17;;;;;;;2.65;2.55;;;;;;;;;;1872030;76;26257;-48
2021/12/30 10:33:48;;;;;;;2.62;2.42;;;;;;;;;;1872121;76;26275;-45
2021/12/30 10:36:20;;;;;;;2.75;2.55;;;;;;;;;;1861031;76;25670;-53
2021/12/30 10:38:48;;;;;;;2.80;2.60;;;;;;;;;;1873603;76;26258;-43
2021/12/30 10:41:15;;;;;;;2.80;2.60;;;;;;;;;;1880513;76;27328;-49
2021/12/30 10:43:46;;;;;;;2.50;2.30;;;;;;;;;;1880264;76;26274;-43
2021/12/30 10:46:21;;;;;;;2.37;2.17;;;;;;;;;;1874355;75;26245;-43
2021/12/30 10:48:50;;;;;;;2.25;2.15;;;;;;;;;;1889698;76;26281;-48
2021/12/30 10:51:37;;;;;;;2.20;2.10;;;;;;;;;;1885759;76;26281;-46
2021/12/30 10:54:15;;;;;;;2.55;2.30;;;;;;;;;;1890090;76;26254;-42
2021/12/30 10:56:44;;;;;;;2.65;2.45;;;;;;;;;;1890182;76;26253;-46
2021/12/30 10:59:13;;;;;;;2.20;2.10;;;;;;;;;;1890230;76;26343;-46
2021/12/30 11:01:42;;;;;;;2.30;2.20;;;;;;;;;;1890078;76;26709;-46
2021/12/30 11:04:09;;;;;;;2.42;2.25;;;;;;;;;;1885834;76;26913;-42
2021/12/30 11:06:37;;;;;;;2.40;2.30;;;;;;;;;;1885976;76;26230;-44
2021/12/30 11:09:12;;;;;;;2.20;2.10;;;;;;;;;;1886121;76;26329;-44
2021/12/30 11:11:41;;;;;;;2.25;2.15;;;;;;;;;;1886176;76;26265;-46
2021/12/30 11:14:10;;;;;;;2.20;2.10;;;;;;;;;;1886434;76;26300;-48
2021/12/30 11:16:38;;;;;;;2.30;2.20;;;;;;;;;;1886162;76;26513;-44
2021/12/30 11:19:07;;;;;;;2.72;2.52;;;;;;;;;;1876899;76;26366;-42
2021/12/30 11:21:36;;;;;;;2.00;1.90;;;;;;;;;;1886284;76;26265;-45
2021/12/30 11:24:04;;;;;;;2.22;2.10;;;;;;;;;;1884715;76;26312;-49
2021/12/30 11:26:32;;;;;;;2.22;2.12;;;;;;;;;;1876665;76;26237;-45
2021/12/30 11:29:01;;;;;;;2.20;2.10;;;;;;;;;;1889598;76;26607;-43
2021/12/30 11:31:29;;;;;;;2.08;1.98;;;;;;;;;;1888245;76;26641;-45
2021/12/30 11:33:57;;;;;;;2.15;2.05;;;;;;;;;;1888391;76;26731;-50
2021/12/30 11:36:25;;;;;;;2.10;2.00;;;;;;;;;;1888540;76;26347;-42
2021/12/30 11:38:52;;;;;;;2.22;2.12;;;;;;;;;;1890237;76;26257;-45
2021/12/30 11:41:21;;;;;;;2.10;2.00;;;;;;;;;;1890229;76;26274;-51
2021/12/30 11:43:49;;;;;;;2.05;1.95;;;;;;;;;;1889128;76;26278;-47
2021/12/30 11:46:34;;;;;;;2.20;2.10;;;;;;;;;;1887769;75;26284;-48
2021/12/30 11:49:02;;;;;;;2.08;1.92;;;;;;;;;;1880285;76;26253;-43
2021/12/30 11:51:36;;;;;;;1.90;1.80;;;;;;;;;;1880366;76;26273;-45
2021/12/30 11:54:21;;;;;;;1.82;1.72;;;;;;;;;;1864311;75;26259;-42
2021/12/30 11:56:50;;;;;;;2.05;1.95;;;;;;;;;;1879698;75;26669;-46
2021/12/30 11:59:19;;;;;;;2.47;1.72;;;;;;;;;;1874199;75;27328;-45
2021/12/30 12:01:46;;;;;;;1.90;1.80;;;;;;;;;;1876485;75;27100;-48
2021/12/30 12:04:14;;;;;;;1.80;1.70;;;;;;;;;;1873313;76;26262;-43
2021/12/30 12:06:43;;;;;;;1.85;1.75;;;;;;;;;;1870369;76;26282;-50
2021/12/30 12:09:25;;;;;;;1.80;1.70;;;;;;;;;;1870038;76;26210;-47
2021/12/30 12:11:57;;;;;;;1.72;1.62;;;;;;;;;;1870770;76;26293;-43
2021/12/30 12:14:32;;;;;;;1.82;1.72;;;;;;;;;;1871153;76;26730;-44
2021/12/30 12:17:03;;;;;;;1.90;1.80;;;;;;;;;;1869066;76;26722;-43
2021/12/30 12:19:50;;;;;;;1.60;1.50;;;;;;;;;;1870944;76;26293;-44
2021/12/30 12:22:19;;;;;;;1.80;1.70;;;;;;;;;;1871147;76;26254;-45
2021/12/30 12:24:47;;;;;;;1.80;1.70;;;;;;;;;;1870916;76;26359;-45
2021/12/30 12:27:22;;;;;;;1.70;1.60;;;;;;;;;;1877381;76;26268;-51
2021/12/30 12:29:52;;;;;;;1.42;1.40;;;;;;;;;;1878112;75;26259;-43
2021/12/30 12:32:21;;;;;;;1.70;1.60;;;;;;;;;;1880961;76;26741;-52
2021/12/30 12:34:54;;;;;;;1.60;1.50;;;;;;;;;;1879223;76;26722;-47
2021/12/30 12:37:40;;;;;;;1.70;1.60;;;;;;;;;;1875302;76;26253;-44
2021/12/30 12:40:10;;;;;;;1.52;1.52;;;;;;;;;;1872367;76;26285;-43
2021/12/30 12:42:45;;;;;;;1.80;1.70;;;;;;;;;;1872312;76;26274;-46
2021/12/30 12:45:29;;;;;;;1.70;1.60;;;;;;;;;;1873448;76;26370;-43
2021/12/30 12:48:14;;;;;;;1.67;1.60;;;;;;;;;;1886704;75;26363;-45
2021/12/30 12:50:42;;;;;;;1.70;1.60;;;;;;;;;;1890528;76;26348;-48
2021/12/30 12:53:29;;;;;;;1.80;1.70;;;;;;;;;;1890695;76;26696;-48
2021/12/30 12:55:57;;;;;;;1.60;1.60;;;;;;;;;;1889052;76;26840;-44
2021/12/30 12:58:27;;;;;;;1.85;1.70;;;;;;;;;;1886786;76;26791;-44
2021/12/30 13:01:00;;;;;;;1.50;1.42;;;;;;;;;;1881333;76;26275;-50
2021/12/30 13:03:28;;;;;;;1.82;1.72;;;;;;;;;;1873927;76;26236;-42
2021/12/30 13:05:59;;;;;;;1.80;1.70;;;;;;;;;;1875915;76;26269;-49
2021/12/30 13:08:26;;;;;;;1.80;1.70;;;;;;;;;;1875882;76;26713;-43
2021/12/30 13:10:54;;;;;;;1.70;1.60;;;;;;;;;;1875897;76;26260;-47
2021/12/30 13:13:45;;;;;;;1.70;1.60;;;;;;;;;;1875981;76;26941;-43
2021/12/30 13:16:20;;;;;;;1.90;1.80;;;;;;;;;;1876179;76;26792;-43
2021/12/30 13:19:01;;;;;;;2.20;2.00;;;;;;;;;;1876137;76;26245;-47
2021/12/30 13:21:30;;;;;;;2.10;2.00;;;;;;;;;;1874316;76;26674;-43
2021/12/30 13:23:57;;;;;;;1.90;1.80;;;;;;;;;;1888670;76;26730;-53
2021/12/30 13:26:27;;;;;;;2.00;1.90;;;;;;;;;;1889277;76;26272;-51
2021/12/30 13:28:58;;;;;;;1.90;1.80;;;;;;;;;;1866519;76;26698;-45
2021/12/30 13:31:22;;;;;;;1.80;1.70;;;;;;;;;;1875394;76;26313;-47
2021/12/30 13:33:54;;;;;;;1.67;1.60;;;;;;;;;;1869922;76;26282;-42
2021/12/30 13:36:22;;;;;;;1.80;1.70;;;;;;;;;;1867416;76;26235;-44
2021/12/30 13:38:50;;;;;;;2.27;2.08;;;;;;;;;;1888380;76;25862;-47
2021/12/30 13:41:19;;;;;;;2.22;2.12;;;;;;;;;;1865106;76;26264;-52
2021/12/30 13:43:46;;;;;;;2.12;2.02;;;;;;;;;;1858602;77;26296;-48
2021/12/30 13:46:15;;;;;;;2.27;2.15;;;;;;;;;;1866722;76;26285;-43
2021/12/30 13:48:44;;;;;;;2.00;1.90;;;;;;;;;;1870511;76;26434;-46
2021/12/30 13:51:15;;;;;;;1.80;1.70;;;;;;;;;;1869570;76;26262;-42
2021/12/30 13:53:43;;;;;;;2.15;1.95;;;;;;;;;;1869762;76;26316;-44
2021/12/30 13:56:12;;;;;;;1.92;1.82;;;;;;;;;;1871885;76;26338;-48
2021/12/30 13:58:40;;;;;;;2.05;1.95;;;;;;;;;;1864395;75;26246;-47
2021/12/30 14:01:12;;;;;;;1.92;1.82;;;;;;;;;;1870950;76;26266;-42
2021/12/30 14:03:44;;;;;;;2.17;2.02;;;;;;;;;;1876285;76;26242;-49
2021/12/30 14:06:15;;;;;;;2.15;2.05;;;;;;;;;;1880673;76;26270;-44
2021/12/30 14:08:50;;;;;;;1.95;1.85;;;;;;;;;;1879110;76;26208;-45
2021/12/30 14:11:18;;;;;;;2.40;2.30;;;;;;;;;;1880890;76;26345;-45
2021/12/30 14:13:46;;;;;;;1.92;1.82;;;;;;;;;;1880885;75;26804;-47
2021/12/30 14:16:18;;;;;;;2.47;2.30;;;;;;;;;;1880903;76;26539;-44
2021/12/30 14:18:47;;;;;;;2.42;2.22;;;;;;;;;;1879223;76;26265;-47
2021/12/30 14:21:14;;;;;;;1.92;1.82;;;;;;;;;;1879045;76;26840;-48
2021/12/30 14:23:47;;;;;;;2.30;2.20;;;;;;;;;;1879257;76;26259;-47
2021/12/30 14:26:17;;;;;;;2.02;1.92;;;;;;;;;;1877906;76;26268;-43
2021/12/30 14:28:46;;;;;;;2.25;2.15;;;;;;;;;;1875739;76;26714;-47
2021/12/30 14:31:21;;;;;;;2.10;2.00;;;;;;;;;;1876691;76;26331;-42
2021/12/30 14:33:50;;;;;;;2.12;2.02;;;;;;;;;;1877750;75;26263;-49
2021/12/30 14:36:19;;;;;;;2.17;2.08;;;;;;;;;;1875411;75;26192;-54
2021/12/30 14:38:46;;;;;;;2.35;2.25;;;;;;;;;;1868112;76;26212;-48
2021/12/30 14:41:15;;;;;;;2.10;2.00;;;;;;;;;;1878121;76;26255;-44
2021/12/30 14:44:03;;;;;;;2.00;1.90;;;;;;;;;;1867211;76;26348;-44
2021/12/30 14:46:31;;;;;;;1.80;1.70;;;;;;;;;;1868262;76;27375;-43
2021/12/30 14:49:02;;;;;;;2.30;2.20;;;;;;;;;;1861574;76;26295;-46
2021/12/30 14:51:33;;;;;;;2.00;1.90;;;;;;;;;;1856579;76;26684;-46
2021/12/30 14:53:59;;;;;;;2.12;2.02;;;;;;;;;;1855055;76;26321;-45